Time;durP1;ratioP1;P1;durP2;ratioP2;P2;SDS_P1;SDS_P2;PMS_P1;PMS_P2;Temp;Humidity;BMP_temperature;BMP_pressure;BME280_temperature;BME280_humidity;BME280_pressure;Samples;Min_cycle;Max_cycle;Signal;HPM_P1;HPM_P2
2023/08/10 00:43:00;;;;;;;;;;;;;;;;;;;;;
2023/08/10 03:23:46;;;;;;;;;;;;;;;;;;;;;
2023/08/10 03:27:05;;;;;;;;;;;;;;;;;;;;;
2023/08/10 03:32:24;;;;;;;37.50;35.20;;;;;;;;;;4738770;30;20045;-96
2023/08/10 05:44:42;;;;;;;60.53;56.67;;;;;;;;;;5067645;24;20064;-95
2023/08/10 05:47:11;;;;;;;79.80;75.13;;;;;;;;;;4863992;29;20435;-93
2023/08/10 05:49:38;;;;;;;120.93;113.88;;;;;;;;;;4868067;29;20024;-93
2023/08/10 05:52:04;;;;;;;148.20;139.70;;;;;;;;;;4869076;29;20100;-93
2023/08/10 05:54:31;;;;;;;189.75;178.85;;;;;;;;;;4864435;29;20047;-93
2023/08/10 05:57:00;;;;;;;165.80;156.60;;;;;;;;;;4864292;29;20052;-93
2023/08/10 05:59:33;;;;;;;232.82;219.18;;;;;;;;;;4845625;29;20029;-93
2023/08/10 06:02:07;;;;;;;263.33;247.70;;;;;;;;;;4845359;29;20055;-93
2023/08/10 06:04:38;;;;;;;344.75;322.42;;;;;;;;;;4860650;29;20036;-93
2023/08/10 06:07:29;;;;;;;324.30;304.35;;;;;;;;;;4845303;29;20041;-94
2023/08/10 06:10:04;;;;;;;256.92;240.80;;;;;;;;;;4845640;29;20071;-94
2023/08/10 06:12:31;;;;;;;245.32;230.88;;;;;;;;;;4880789;29;20033;-93
2023/08/10 06:14:58;;;;;;;208.20;195.75;;;;;;;;;;4849142;29;20459;-93
2023/08/10 06:17:28;;;;;;;143.85;135.25;;;;;;;;;;4845273;29;20407;-94
2023/08/10 06:19:57;;;;;;;107.85;101.68;;;;;;;;;;4845278;29;20085;-94
2023/08/10 06:22:26;;;;;;;111.47;104.95;;;;;;;;;;4852608;29;20467;-95
2023/08/10 06:25:06;;;;;;;115.78;109.03;;;;;;;;;;4862001;29;20159;-94
2023/08/10 06:27:33;;;;;;;110.00;103.72;;;;;;;;;;4854469;29;20030;-94
2023/08/10 06:30:29;;;;;;;96.60;91.10;;;;;;;;;;4851524;29;20046;-95
2023/08/10 06:33:24;;;;;;;100.72;94.70;;;;;;;;;;4848054;29;20038;-95
2023/08/10 06:36:34;;;;;;;95.43;89.88;;;;;;;;;;4852570;29;20029;-96
2023/08/10 06:39:04;;;;;;;113.72;107.13;;;;;;;;;;4805247;29;20035;-94
2023/08/10 06:41:38;;;;;;;94.07;88.57;;;;;;;;;;4776368;30;20409;-94
2023/08/10 06:44:07;;;;;;;136.65;128.80;;;;;;;;;;4818705;29;20057;-94
2023/08/10 06:46:36;;;;;;;66.53;62.72;;;;;;;;;;4849081;29;20029;-95
2023/08/10 06:49:06;;;;;;;88.93;83.90;;;;;;;;;;4848517;29;20490;-94
2023/08/10 06:51:47;;;;;;;55.20;52.00;;;;;;;;;;4850810;29;20086;-96
2023/08/10 06:54:27;;;;;;;;;;;;;;;;;;;;;
2023/08/10 06:57:35;;;;;;;;;;;;;;;;;;;;;
2023/08/10 07:02:59;;;;;;;101.47;95.82;;;;;;;;;;5388220;23;20057;-96
2023/08/10 07:08:01;;;;;;;134.52;127.00;;;;;;;;;;5196583;23;20080;-93
2023/08/10 07:10:31;;;;;;;114.53;107.70;;;;;;;;;;4889195;29;20040;-94
2023/08/10 07:15:46;;;;;;;86.90;82.05;;;;;;;;;;4892045;29;20052;-93
2023/08/10 07:18:30;;;;;;;51.45;48.65;;;;;;;;;;4867520;29;20136;-95
2023/08/10 07:24:08;;;;;;;117.22;110.65;;;;;;;;;;5609234;23;20047;-92
2023/08/10 07:26:35;;;;;;;119.18;112.57;;;;;;;;;;4876677;29;20032;-93
2023/08/10 07:29:01;;;;;;;80.70;76.22;;;;;;;;;;4889340;29;20110;-92
2023/08/10 07:31:31;;;;;;;70.18;66.28;;;;;;;;;;4868086;29;20021;-95
2023/08/10 07:34:01;;;;;;;48.75;46.00;;;;;;;;;;4879353;29;20048;-91
2023/08/10 07:36:28;;;;;;;79.10;74.68;;;;;;;;;;4866633;29;20082;-91
2023/08/10 07:38:55;;;;;;;45.63;43.15;;;;;;;;;;4871496;29;20048;-92
2023/08/10 07:41:25;;;;;;;49.38;46.47;;;;;;;;;;4870206;29;20069;-92
2023/08/10 07:43:54;;;;;;;122.97;115.85;;;;;;;;;;4896435;29;20474;-95
2023/08/10 07:49:14;;;;;;;111.32;104.97;;;;;;;;;;4859517;29;20054;-94
2023/08/10 07:52:00;;;;;;;110.30;104.15;;;;;;;;;;4896105;29;20037;-90
2023/08/10 07:54:36;;;;;;;96.50;90.90;;;;;;;;;;4878450;29;20158;-90
2023/08/10 07:57:14;;;;;;;111.55;105.28;;;;;;;;;;4872894;29;20041;-96
2023/08/10 07:59:43;;;;;;;104.72;98.50;;;;;;;;;;4882010;29;20032;-92
2023/08/10 08:02:12;;;;;;;74.45;70.28;;;;;;;;;;4879473;29;20048;-96
2023/08/10 08:04:41;;;;;;;106.70;100.75;;;;;;;;;;4866769;29;20028;-95
2023/08/10 08:07:07;;;;;;;96.00;90.68;;;;;;;;;;4865849;29;20025;-96
2023/08/10 08:09:33;;;;;;;125.63;118.55;;;;;;;;;;4878206;29;20029;-95
2023/08/10 08:12:00;;;;;;;184.07;173.88;;;;;;;;;;4878002;29;20040;-95
2023/08/10 08:14:26;;;;;;;219.85;206.73;;;;;;;;;;4865383;29;20021;-96
2023/08/10 08:16:57;;;;;;;258.70;243.77;;;;;;;;;;4867598;29;20040;-95
2023/08/10 08:19:23;;;;;;;318.15;299.27;;;;;;;;;;4866349;29;20144;-95
2023/08/10 08:21:58;;;;;;;319.02;299.77;;;;;;;;;;4865675;29;20398;-95
2023/08/10 08:24:28;;;;;;;357.33;335.52;;;;;;;;;;4890917;29;20049;-93
2023/08/10 08:27:07;;;;;;;410.15;383.35;;;;;;;;;;4875364;29;20025;-93
2023/08/10 08:32:33;;;;;;;327.63;307.50;;;;;;;;;;4863331;29;20114;-92
2023/08/10 08:34:59;;;;;;;210.02;198.23;;;;;;;;;;4874602;29;20033;-91
2023/08/10 08:37:25;;;;;;;196.32;184.75;;;;;;;;;;4891027;29;20063;-93
2023/08/10 08:39:51;;;;;;;174.18;163.93;;;;;;;;;;4877948;29;20136;-95
2023/08/10 08:42:23;;;;;;;138.63;130.73;;;;;;;;;;4864900;29;20040;-93
2023/08/10 08:44:52;;;;;;;129.73;122.30;;;;;;;;;;4864485;29;20482;-94
2023/08/10 08:47:27;;;;;;;131.10;123.53;;;;;;;;;;4864131;29;20025;-92
2023/08/10 08:49:56;;;;;;;110.15;103.65;;;;;;;;;;4863811;29;20029;-89
2023/08/10 08:52:22;;;;;;;135.55;127.38;;;;;;;;;;4845844;29;20037;-90
2023/08/10 08:54:52;;;;;;;47.03;44.53;;;;;;;;;;4852101;29;20037;-90
2023/08/10 08:57:21;;;;;;;60.60;57.38;;;;;;;;;;4863898;29;20474;-95
2023/08/10 08:59:50;;;;;;;143.90;135.48;;;;;;;;;;4864254;29;20041;-92
2023/08/10 09:02:21;;;;;;;122.90;116.07;;;;;;;;;;4864894;29;20099;-90
2023/08/10 09:04:50;;;;;;;153.30;144.80;;;;;;;;;;4865535;29;20033;-93
2023/08/10 09:07:16;;;;;;;221.40;208.82;;;;;;;;;;4864442;29;20060;-93
2023/08/10 09:09:45;;;;;;;238.10;224.48;;;;;;;;;;4865989;29;20029;-92
2023/08/10 09:12:29;;;;;;;253.23;238.75;;;;;;;;;;4884869;29;20517;-93
2023/08/10 09:15:10;;;;;;;246.75;232.75;;;;;;;;;;4866885;29;20037;-96
2023/08/10 09:17:47;;;;;;;261.20;245.35;;;;;;;;;;4876885;29;20037;-94
2023/08/10 09:20:23;;;;;;;220.32;207.73;;;;;;;;;;4865221;29;20094;-94
2023/08/10 09:22:53;;;;;;;236.07;222.60;;;;;;;;;;4869145;29;20035;-95
2023/08/10 09:25:20;;;;;;;231.65;218.43;;;;;;;;;;4888310;29;20036;-94
2023/08/10 09:27:47;;;;;;;230.43;217.30;;;;;;;;;;4866963;29;20037;-94
2023/08/10 09:30:15;;;;;;;247.50;233.20;;;;;;;;;;4874230;29;20037;-93
2023/08/10 09:32:43;;;;;;;247.30;233.00;;;;;;;;;;4876530;29;20093;-94
2023/08/10 09:35:16;;;;;;;209.48;197.43;;;;;;;;;;4870862;29;20047;-94
2023/08/10 09:37:43;;;;;;;225.07;212.10;;;;;;;;;;4877980;29;20037;-95
2023/08/10 09:40:13;;;;;;;257.15;242.23;;;;;;;;;;4868651;29;20033;-93
2023/08/10 09:42:40;;;;;;;281.55;265.23;;;;;;;;;;4869968;29;20168;-96
2023/08/10 09:45:24;;;;;;;323.05;303.73;;;;;;;;;;4899828;29;20100;-96
2023/08/10 09:47:54;;;;;;;321.13;302.35;;;;;;;;;;4901846;29;20044;-92
2023/08/10 09:50:25;;;;;;;320.02;300.92;;;;;;;;;;4867762;29;20090;-93
2023/08/10 09:52:52;;;;;;;326.70;306.90;;;;;;;;;;4869628;29;20029;-94
2023/08/10 09:55:18;;;;;;;333.85;314.08;;;;;;;;;;4879025;29;20029;-94
2023/08/10 09:57:52;;;;;;;332.20;311.90;;;;;;;;;;4912474;29;20029;-91
2023/08/10 10:00:29;;;;;;;315.88;297.08;;;;;;;;;;4907646;29;20040;-94
2023/08/10 10:03:06;;;;;;;340.60;319.50;;;;;;;;;;4882183;29;20058;-92
2023/08/10 10:05:35;;;;;;;348.05;326.90;;;;;;;;;;4881592;29;20042;-91
2023/08/10 10:08:07;;;;;;;339.52;319.40;;;;;;;;;;4866204;29;20045;-92
2023/08/10 10:10:35;;;;;;;342.45;321.35;;;;;;;;;;4863581;29;20096;-94
2023/08/10 10:13:04;;;;;;;289.80;272.80;;;;;;;;;;4867192;29;20041;-94
2023/08/10 10:15:31;;;;;;;391.70;367.40;;;;;;;;;;4870547;29;20029;-92
2023/08/10 10:18:10;;;;;;;;;;;;;;;;;;;;;
2023/08/10 10:40:54;;;;;;;411.10;384.55;;;;;;;;;;5113483;23;20192;-95
2023/08/10 11:07:26;;;;;;;372.08;347.30;;;;;;;;;;5513528;24;20049;-92
2023/08/10 11:09:52;;;;;;;415.40;387.63;;;;;;;;;;4867769;29;20033;-93
2023/08/10 11:12:18;;;;;;;440.48;411.80;;;;;;;;;;4866931;29;20516;-92
2023/08/10 11:14:44;;;;;;;354.20;332.17;;;;;;;;;;4866531;29;20364;-93
2023/08/10 11:17:22;;;;;;;410.42;383.00;;;;;;;;;;4848375;29;20033;-95
2023/08/10 11:23:27;;;;;;;412.50;385.55;;;;;;;;;;4843472;29;20117;-96
2023/08/10 11:53:22;;;;;;;447.20;417.63;;;;;;;;;;4871789;29;20052;-94
2023/08/10 11:55:55;;;;;;;532.90;496.77;;;;;;;;;;4853542;29;20041;-93
2023/08/10 11:58:32;;;;;;;422.95;394.10;;;;;;;;;;4855648;29;20040;-94
2023/08/10 12:01:06;;;;;;;433.33;404.20;;;;;;;;;;4859754;29;20056;-93
2023/08/10 12:03:37;;;;;;;521.28;486.10;;;;;;;;;;4881829;29;20040;-94
2023/08/10 12:06:06;;;;;;;392.13;365.75;;;;;;;;;;4871279;29;20076;-96
2023/08/10 12:11:47;;;;;;;417.48;389.48;;;;;;;;;;4901079;29;20065;-94
2023/08/10 12:14:41;;;;;;;451.80;421.05;;;;;;;;;;4878626;29;20048;-96
2023/08/10 12:23:17;;;;;;;;;;;;;;;;;;4868686;29;20043;-96
2023/08/10 12:25:52;;;;;;;422.52;395.45;;;;;;;;;;4877214;29;19908;-95
2023/08/10 12:28:47;;;;;;;455.92;425.25;;;;;;;;;;4863707;29;20414;-96
2023/08/10 12:31:25;;;;;;;416.77;389.60;;;;;;;;;;4763100;30;20086;-96
2023/08/10 12:33:56;;;;;;;462.88;431.75;;;;;;;;;;4846667;29;20109;-95
2023/08/10 12:36:30;;;;;;;533.08;487.52;;;;;;;;;;4856361;29;20061;-96
2023/08/10 12:39:18;;;;;;;408.42;381.40;;;;;;;;;;4862796;29;20114;-95
2023/08/10 12:48:08;;;;;;;463.70;432.67;;;;;;;;;;4805370;29;20042;-96
2023/08/10 12:50:37;;;;;;;409.48;383.25;;;;;;;;;;4793238;29;20059;-96
2023/08/10 12:53:06;;;;;;;467.25;436.23;;;;;;;;;;4790552;29;20096;-96
2023/08/10 12:55:32;;;;;;;423.88;395.33;;;;;;;;;;4782510;30;20077;-96
2023/08/10 12:57:58;;;;;;;462.15;429.15;;;;;;;;;;4788033;29;20030;-95
2023/08/10 13:00:39;;;;;;;421.60;395.00;;;;;;;;;;4845912;29;20046;-96
2023/08/10 13:03:34;;;;;;;;;;;;;;;;;;;;;
2023/08/10 13:06:08;;;;;;;399.75;374.48;;;;;;;;;;4880579;29;20600;-96
2023/08/10 15:48:33;;;;;;;454.80;424.35;;;;;;;;;;5887139;24;20335;31
2023/08/10 16:12:19;;;;;;;498.58;465.48;;;;;;;;;;5241596;23;21481;-95
2023/08/10 16:15:05;;;;;;;540.38;503.08;;;;;;;;;;4877193;29;20033;-96
2023/08/10 16:20:09;;;;;;;490.13;457.33;;;;;;;;;;4931937;24;20084;-96
2023/08/10 16:54:27;;;;;;;208.50;195.48;;;;;;;;;;4696102;30;20514;-96
2023/08/10 17:20:16;;;;;;;;;;;;;;;;;;;;;
2023/08/10 17:26:15;;;;;;;113.43;106.28;;;;;;;;;;4720010;30;20052;-96
2023/08/10 17:28:59;;;;;;;;;;;;;;;;;;;;;
2023/08/10 17:31:37;;;;;;;107.18;100.00;;;;;;;;;;4719378;30;20289;-96
2023/08/10 17:34:03;;;;;;;130.73;122.78;;;;;;;;;;4786522;29;20034;-94
2023/08/10 17:36:38;;;;;;;113.63;106.50;;;;;;;;;;4791623;29;20481;-95
2023/08/10 17:39:17;;;;;;;;;;;;;;;;;;;;;
2023/08/10 17:41:47;;;;;;;98.25;91.85;;;;;;;;;;4808702;29;20555;-95
2023/08/10 17:44:32;;;;;;;86.50;80.95;;;;;;;;;;4791682;30;20055;-94
2023/08/10 17:49:53;;;;;;;55.38;52.03;;;;;;;;;;5609801;23;20075;-96
2023/08/10 17:52:33;;;;;;;76.75;71.93;;;;;;;;;;4861164;29;20121;-96
2023/08/10 18:13:34;;;;;;;47.97;45.05;;;;;;;;;;4834330;29;20120;-96
2023/08/10 18:25:21;;;;;;;119.47;113.10;;;;;;;;;;4766938;29;20085;-96
2023/08/10 18:27:55;;;;;;;81.78;77.43;;;;;;;;;;4823825;29;20036;-95
2023/08/10 18:30:21;;;;;;;55.90;52.42;;;;;;;;;;4840870;29;20030;-95
2023/08/10 18:32:48;;;;;;;65.82;62.05;;;;;;;;;;4859524;29;20089;-95
2023/08/10 18:41:18;;;;;;;;;;;;;;;;;;;;;
2023/08/10 18:43:55;;;;;;;92.82;87.90;;;;;;;;;;4892514;29;20470;-96
2023/08/10 18:46:24;;;;;;;97.05;91.82;;;;;;;;;;4857928;29;20041;-96
2023/08/10 18:55:26;;;;;;;110.85;105.07;;;;;;;;;;4868818;29;20077;-96
2023/08/10 18:57:52;;;;;;;102.63;97.10;;;;;;;;;;4852060;29;20085;-96
2023/08/10 19:00:21;;;;;;;76.38;71.85;;;;;;;;;;4867779;29;20048;-96
2023/08/10 19:02:50;;;;;;;86.20;81.50;;;;;;;;;;4866862;29;20479;-95
2023/08/10 19:05:16;;;;;;;62.58;58.97;;;;;;;;;;4857965;29;20120;-95
2023/08/10 19:07:46;;;;;;;58.30;55.15;;;;;;;;;;4833960;29;20098;-95
2023/08/10 19:10:12;;;;;;;61.13;57.80;;;;;;;;;;4849886;29;20142;-95
2023/08/10 19:12:39;;;;;;;66.80;63.15;;;;;;;;;;4848127;29;20037;-95
2023/08/10 19:15:08;;;;;;;56.75;53.58;;;;;;;;;;4849407;29;20025;-96
2023/08/10 19:17:46;;;;;;;46.42;43.78;;;;;;;;;;4849684;29;20041;-95
2023/08/10 19:26:41;;;;;;;;;;;;;;;;;;;;;
2023/08/10 19:48:38;;;;;;;66.80;63.17;;;;;;;;;;4736978;30;20043;-96
2023/08/10 19:51:13;;;;;;;;;;;;;;;;;;4753346;30;20047;-96
2023/08/10 19:57:04;;;;;;;74.60;70.47;;;;;;;;;;4716257;30;20140;-95
2023/08/10 19:59:30;;;;;;;60.92;57.50;;;;;;;;;;4720885;30;20073;-96
2023/08/10 20:05:53;;;;;;;;;;;;;;;;;;;;;
2023/08/10 20:08:29;;;;;;;57.67;54.45;;;;;;;;;;4832981;29;20049;-95
2023/08/10 20:11:01;;;;;;;67.45;63.72;;;;;;;;;;4846643;29;20049;-96
2023/08/10 20:13:48;;;;;;;55.28;52.20;;;;;;;;;;4846639;29;20117;-96
2023/08/10 21:09:37;;;;;;;40.17;37.70;;;;;;;;;;4665244;30;20159;-94
2023/08/10 21:12:11;;;;;;;37.20;35.03;;;;;;;;;;4653379;30;20523;-96
2023/08/10 21:14:59;;;;;;;39.13;36.83;;;;;;;;;;4664507;30;20042;-95
2023/08/10 21:17:27;;;;;;;38.28;35.97;;;;;;;;;;4682456;30;20141;-94
2023/08/10 21:19:56;;;;;;;37.88;35.67;;;;;;;;;;4699412;30;20047;-96
2023/08/10 21:22:23;;;;;;;38.90;36.60;;;;;;;;;;4772314;29;20533;-93
2023/08/10 21:24:49;;;;;;;41.53;38.92;;;;;;;;;;4828027;29;20065;-96
2023/08/10 21:27:15;;;;;;;40.95;38.40;;;;;;;;;;4837241;29;20045;-96
2023/08/10 21:29:42;;;;;;;39.95;37.08;;;;;;;;;;4834027;29;20526;-96
2023/08/10 21:32:08;;;;;;;38.75;36.45;;;;;;;;;;4827714;29;20026;-96
2023/08/10 21:34:37;;;;;;;40.10;37.58;;;;;;;;;;4827142;29;20038;-96
2023/08/10 21:37:03;;;;;;;41.17;38.75;;;;;;;;;;4828415;29;20026;-94
2023/08/10 21:39:32;;;;;;;41.85;39.28;;;;;;;;;;4835598;29;20061;-96
2023/08/10 21:41:58;;;;;;;44.58;41.92;;;;;;;;;;4828164;29;20050;-95
2023/08/10 21:44:27;;;;;;;38.78;36.42;;;;;;;;;;4827582;29;20388;-95
2023/08/10 21:49:47;;;;;;;42.95;40.28;;;;;;;;;;4862156;29;20495;-96
2023/08/10 21:52:13;;;;;;;40.28;37.88;;;;;;;;;;4845784;29;20029;-96
2023/08/10 21:54:47;;;;;;;41.85;39.45;;;;;;;;;;4845424;29;20502;-96
2023/08/10 21:57:15;;;;;;;42.17;39.63;;;;;;;;;;4847141;29;20036;-94
2023/08/10 21:59:41;;;;;;;38.47;36.10;;;;;;;;;;4849046;29;20034;-95
2023/08/10 22:02:18;;;;;;;44.53;41.85;;;;;;;;;;4849298;29;20479;-96
2023/08/10 22:04:57;;;;;;;;;;;;;;;;;;;;;
2023/08/10 22:07:23;;;;;;;41.67;38.92;;;;;;;;;;4881240;29;20033;-96
2023/08/10 22:09:50;;;;;;;39.80;37.30;;;;;;;;;;4870510;29;20041;-96
2023/08/10 22:12:17;;;;;;;43.25;40.60;;;;;;;;;;4872056;29;20517;-96
2023/08/10 22:14:49;;;;;;;46.45;43.65;;;;;;;;;;4871792;29;20018;-95
2023/08/10 22:19:51;;;;;;;38.58;36.08;;;;;;;;;;4996605;23;19927;-96
2023/08/10 22:28:15;;;;;;;34.42;32.13;;;;;;;;;;4890644;29;20087;-96
2023/08/10 22:30:41;;;;;;;38.17;35.88;;;;;;;;;;4873007;29;20044;-95
2023/08/10 22:33:22;;;;;;;37.03;34.78;;;;;;;;;;4869446;29;20394;-96
2023/08/10 22:35:48;;;;;;;35.03;32.95;;;;;;;;;;4872096;29;20037;-96
2023/08/10 22:38:18;;;;;;;42.53;39.85;;;;;;;;;;4870097;29;20116;-96
2023/08/10 22:40:48;;;;;;;39.40;37.15;;;;;;;;;;4872394;29;20032;-96
2023/08/10 22:43:14;;;;;;;42.65;40.13;;;;;;;;;;4872158;29;20108;-95
2023/08/10 22:45:41;;;;;;;36.75;34.55;;;;;;;;;;4868487;29;20033;-96
2023/08/10 22:48:07;;;;;;;38.55;35.90;;;;;;;;;;4856899;29;20045;-95
2023/08/10 22:50:39;;;;;;;38.88;36.42;;;;;;;;;;4860354;29;20052;-96
2023/08/10 22:53:05;;;;;;;38.47;36.28;;;;;;;;;;4869933;29;20040;-94
2023/08/10 22:55:31;;;;;;;39.13;36.72;;;;;;;;;;4869707;29;20064;-96
2023/08/10 23:01:04;;;;;;;33.72;31.63;;;;;;;;;;4884858;29;20032;-96
2023/08/10 23:03:30;;;;;;;38.47;35.95;;;;;;;;;;4867973;29;20029;-95
2023/08/10 23:05:59;;;;;;;41.08;38.60;;;;;;;;;;4867178;29;20538;-95
2023/08/10 23:08:35;;;;;;;37.35;35.20;;;;;;;;;;4866924;29;20482;-95
2023/08/10 23:11:04;;;;;;;34.85;32.65;;;;;;;;;;4867969;29;20042;-95
2023/08/10 23:13:30;;;;;;;38.38;36.05;;;;;;;;;;4867325;29;20037;-96
2023/08/10 23:16:02;;;;;;;37.15;34.45;;;;;;;;;;4868543;29;20056;-95
2023/08/10 23:18:30;;;;;;;39.10;36.50;;;;;;;;;;4856546;29;20038;-96
2023/08/10 23:21:00;;;;;;;40.10;37.78;;;;;;;;;;4849741;29;20057;-94
2023/08/10 23:23:32;;;;;;;38.78;36.20;;;;;;;;;;4852314;29;20453;-96
2023/08/10 23:25:58;;;;;;;36.88;34.55;;;;;;;;;;4867336;29;20059;-95
2023/08/10 23:28:24;;;;;;;37.72;34.85;;;;;;;;;;4867250;29;20021;-95
2023/08/10 23:30:57;;;;;;;41.08;38.78;;;;;;;;;;4868782;29;20045;-96
2023/08/10 23:33:26;;;;;;;35.03;33.00;;;;;;;;;;4868067;29;20025;-95
2023/08/10 23:35:52;;;;;;;36.95;34.70;;;;;;;;;;4867596;29;20025;-96
2023/08/10 23:38:18;;;;;;;40.15;37.85;;;;;;;;;;4867790;29;20063;-95
2023/08/10 23:40:50;;;;;;;40.55;38.10;;;;;;;;;;4868536;29;20474;-96
2023/08/10 23:43:18;;;;;;;39.28;36.85;;;;;;;;;;4868092;29;20375;-94
2023/08/10 23:45:44;;;;;;;37.00;34.67;;;;;;;;;;4866297;29;20025;-95
2023/08/10 23:48:18;;;;;;;37.60;35.40;;;;;;;;;;4870473;29;20037;-96
2023/08/10 23:50:44;;;;;;;36.97;34.67;;;;;;;;;;4867052;29;20036;-95
2023/08/10 23:53:16;;;;;;;40.95;38.53;;;;;;;;;;4868897;29;20025;-96
2023/08/10 23:55:47;;;;;;;40.13;37.75;;;;;;;;;;4866603;29;20033;-96
2023/08/10 23:58:15;;;;;;;42.00;39.45;;;;;;;;;;4867960;29;20120;-96
